Tiempo atmosférico en la estación meteorológica de Cañamero, Cáceres (590 m.)



Fecha
DESCASC
Temp. máxima en grados centígrados (hora)
DESCASC
Temp. mínima en grados centígrados (hora)
DESCASC
Temp. media en grados centígrados
DESCASC
Racha de viento máxima en m/sg (hora)
DESCASC
Velocidad máxima media en intervalos de 10 minutos(hora)
DESCASC
Precipitaciones diarias en mm
DESCASC
Precipitaciones de 00:00 a 06:00 en mm
DESCASC
Precipitaciones de 06:00 a 12:00 en mm
DESCASC
Precipitaciones de 12:00 a 18:00 en mm
DESCASC
Precipitaciones de 18:00 a 24:00 en mm
DESCASC
14-07-2019 32.3 (18:20) 17 (00:00) 24.6 10.56 (17:50) 6.67 (17:00) 0 0 0 0 0
13-07-2019 29.6 (00:00) 20.9 (00:00) 25.3 11.11 (17:20) 6.67 (17:30) 0 0 0 0 0
12-07-2019 35.4 (16:40) 21.9 (00:00) 28.7 10.56 (18:00) 6.39 (18:10) 0 0 0 0 0
11-07-2019 38.8 (16:30) 23 (00:00) 30.9 8.61 (18:10) 4.72 (17:00) 0 0 0 0 0
10-07-2019 35.1 (18:00) 19.5 (00:00) 27.3 9.44 (14:40) 3.33 (10:30) 0 0 0 0 0
09-07-2019 29.6 (19:40) 14 (00:00) 21.8 7.78 (18:00) 4.44 (18:40) 0 0 0 0 0
08-07-2019 25.9 (15:30) 15.1 (00:00) 20.5 10.83 (17:10) 6.39 (17:30) 0 0 0 0 0
07-07-2019 30.3 (18:30) 17.3 (00:00) 23.8 10.28 (16:20) 5 (16:50) 0 0 0 0 0
06-07-2019 30.4 (18:10) 15.1 (00:00) 22.8 9.72 (14:50) 5.83 (18:20) 0 0 0 0 0
05-07-2019 30.4 (18:00) 14.3 (00:00) 22.3 8.06 (17:20) 5 (17:20) 0 0 0 0 0
04-07-2019 30.7 (17:50) 16.7 (00:00) 23.7 10.28 (14:20) 5 (14:00) 0 0 0 0 0
03-07-2019 33.1 (17:20) 17.1 (00:00) 25.1 10.28 (18:20) 5.56 (18:20) 0 0 0 0 0
02-07-2019 32.4 (18:00) 14.4 (07:20) 23.4 8.61 (13:20) 5.83 (16:30) 0 0 0 0 0
01-07-2019 32.1 (18:20) 16.3 (07:20) 24.2 10.56 (17:50) 5.83 (15:20) 0 0 0 0 0
30-06-2019 35.4 (17:00) 19.2 (00:00) 27.3 9.17 (14:00) 5 (15:20) 0 0 0 0 0
29-06-2019 38.6 (18:20) 19.6 (00:00) 29.1 7.5 (16:10) 3.89 (16:00) 0 0 0 0 0
28-06-2019 39.6 (19:10) 19.1 (00:00) 29.3 8.33 (15:50) 4.72 (15:50) 0 0 0 0 0
27-06-2019 33.1 (18:00) 18.4 (00:00) 25.7 10 (15:20) 4.44 (18:30) 0 0 0 0 0
26-06-2019 32.4 (17:40) 16.5 (00:00) 24.5 10 (15:20) 5.28 (15:20) 0 0 0 0 0
25-06-2019 33.9 (18:30) 15.9 (00:00) 24.9 9.17 (16:10) 5 (19:30) 0 0 0 0 0
24-06-2019 30.8 (18:40) 19 (00:00) 24.9 9.72 (17:00) 5.56 (16:20) 0 0 0 0 0
23-06-2019 31.8 (17:50) 14.5 (00:00) 23.1 8.61 (13:50) 4.17 (18:40) 0 0 0 0 0
22-06-2019 32.1 (19:20) 16 (00:00) 24 8.89 (13:20) 4.72 (14:20) 0 0 0 0 0
21-06-2019 28.6 (17:40) 10.9 (00:00) 19.8 8.89 (19:00) 5.28 (19:00) 0 0 0 0 0
20-06-2019 26.3 (18:00) 13.6 (00:00) 19.9 9.72 (18:10) 5.56 (17:40) 0 0 0 0 0
19-06-2019 24.8 (17:10) 14.2 (00:00) 19.5 8.33 (14:50) 5.28 (18:20) 0 0 0 0 0
18-06-2019 27.1 (17:50) 13.9 (00:00) 20.5 11.94 (18:50) 6.94 (16:10) 0 0 0 0 0
17-06-2019 31.2 (17:10) 12.5 (00:00) 21.9 10.83 (18:20) 5.56 (17:30) 0 0 0 0 0
16-06-2019 29.6 (18:50) 14.2 (00:00) 21.9 7.22 (15:50) 4.17 (16:10) 0 0 0 0 0

Gráficas

Temp. máximas Temp. mínimas Temp. medias Precipitaciones Rachas de viento máximas Velocidades máximas media en intervalos de 10 minutos

Datos horarios

Fecha y hora oficial Temperatura (ºC) Velocidad del viento (km/h) Dirección del viento Racha (km/h) Dirección de racha Precipitación (mm) Presión (hPa) Tendencia (hPa) Humedad (%)
2019-07-15 23:00:00 27.9 5 Oeste 14 Sudoeste 0 -- -- 37
2019-07-15 22:00:00 29.6 11 Sudoeste 23 Sudoeste 0 -- -- 34
2019-07-15 21:00:00 31.9 17 Sudoeste 28 Sudoeste 0 -- -- 30
2019-07-15 20:00:00 33.2 18 Sudoeste 30 Sudoeste 0 -- -- 30
2019-07-15 19:00:00 33.8 21 Sudoeste 33 Sudoeste 0 -- -- 31
2019-07-15 18:00:00 33.9 15 Oeste 36 Sudoeste 0 -- -- 31
2019-07-15 17:00:00 33.9 19 Oeste 37 Sudoeste 0 -- -- 32
2019-07-15 16:00:00 33.5 20 Sudoeste 34 Sudoeste 0 -- -- 33
2019-07-15 15:00:00 31.9 19 Sudoeste 28 Oeste 0 -- -- 39
2019-07-15 14:00:00 30.8 15 Sudoeste 27 Sudoeste 0 -- -- 43
2019-07-15 13:00:00 28.7 10 Sudoeste 21 Sudoeste 0 -- -- 49
2019-07-15 12:00:00 27.3 10 Sudoeste 17 Sudoeste 0 -- -- 52
2019-07-15 11:00:00 25.7 8 Sudoeste 14 Sudoeste 0 -- -- 57
2019-07-15 10:00:00 22.8 3 Oeste 8 Oeste 0 -- -- 67
2019-07-15 09:00:00 20 7 Sudoeste 10 Sudoeste 0 -- -- 79
2019-07-15 08:00:00 18.6 3 Sudoeste 5 Sudoeste 0 -- -- 83
2019-07-15 07:00:00 18.4 2 Sudoeste 6 Oeste 0 -- -- 80
2019-07-15 06:00:00 19.6 2 Sudoeste 10 Sudoeste 0 -- -- 78
2019-07-15 05:00:00 20.5 2 Sudeste 9 Sur 0 -- -- 71
2019-07-15 04:00:00 22.4 5 Sur 14 Oeste 0 -- -- 61
2019-07-15 03:00:00 23.7 9 Oeste 13 Oeste 0 -- -- 56
2019-07-15 02:00:00 25 7 Oeste 13 Noroeste 0 -- -- 50
2019-07-15 01:00:00 25.4 8 Oeste 15 Oeste 0 -- -- 47
2019-07-15 00:00:00 25.7 7 Oeste 18 Sudoeste 0 -- -- 47
2019-07-14 23:00:00 26.8 8 Sudoeste 20 Oeste 0 -- -- 45
2019-07-14 22:00:00 28.2 10 Sudoeste 25 Sudoeste 0 -- -- 43
2019-07-14 21:00:00 30.3 18 Sudoeste 29 Sudoeste 0 -- -- 39
2019-07-14 20:00:00 32 19 Sudoeste 34 Sudoeste 0 -- -- 34
2019-07-14 19:00:00 32 22 Sudoeste 36 Sudoeste 0 -- -- 35
2019-07-14 18:00:00 32 22 Sudoeste 38 Sudoeste 0 -- -- 35
2019-07-14 17:00:00 31.1 24 Sudoeste 37 Sudoeste 0 -- -- 38
2019-07-14 16:00:00 30.3 20 Sudoeste 37 Sudoeste 0 -- -- 41
2019-07-14 15:00:00 29.2 18 Sudoeste 31 Sudoeste 0 -- -- 42
2019-07-14 14:00:00 27.3 19 Sudoeste 28 Sudoeste 0 -- -- 48
2019-07-14 13:00:00 25.6 16 Sudoeste 28 Oeste 0 -- -- 53
2019-07-14 12:00:00 23.5 17 Sudoeste 28 Sudoeste 0 -- -- 59
2019-07-14 11:00:00 22.2 17 Sudoeste 25 Sudoeste 0 -- -- 63
2019-07-14 10:00:00 21.1 13 Sudoeste 19 Oeste 0 -- -- 65
2019-07-14 09:00:00 19.9 13 Oeste 21 Oeste 0 -- -- 69
2019-07-14 08:00:00 17.4 10 Oeste 23 Sudoeste 0 -- -- 81
2019-07-14 07:00:00 17.3 14 Oeste 20 Oeste 0 -- -- 82
2019-07-14 06:00:00 17.7 11 Sudoeste 15 Sudoeste 0 -- -- 79
2019-07-14 05:00:00 18.8 9 Oeste 15 Oeste 0 -- -- 73
2019-07-14 04:00:00 19.6 4 Oeste 14 Noroeste 0 -- -- 68
2019-07-14 03:00:00 20.6 10 Noroeste 18 Noroeste 0 -- -- 65
2019-07-14 02:00:00 20.8 4 Noroeste 18 Noroeste 0 -- -- 62
2019-07-14 01:00:00 21.4 6 Oeste 14 Oeste 0 -- -- 58
2019-07-14 00:00:00 22 7 Oeste 14 Oeste 0 -- -- 51
2019-07-13 23:00:00 23.1 5 Sudoeste 18 Oeste 0 -- -- 46
2019-07-13 22:00:00 24.8 13 Oeste 33 Oeste 0 -- -- 43
2019-07-13 21:00:00 26.7 18 Oeste 35 Sudoeste 0 -- -- 37
2019-07-13 20:00:00 27.9 20 Oeste 36 Oeste 0 -- -- 36
2019-07-13 19:00:00 28.1 20 Oeste 38 Oeste 0 -- -- 36
2019-07-13 18:00:00 28.6 19 Sudoeste 40 Sudoeste 0 -- -- 35
2019-07-13 17:00:00 28.7 13 Sudoeste 35 Sudoeste 0 -- -- 41
2019-07-13 16:00:00 28.7 17 Oeste 32 Sudoeste 0 -- -- 42
2019-07-13 15:00:00 27.9 15 Oeste 31 Sudoeste 0 -- -- 40
2019-07-13 14:00:00 27.3 14 Sudoeste 28 Sudoeste 0 -- -- 47
2019-07-13 13:00:00 26 13 Oeste 29 Sudoeste 0 -- -- 50
2019-07-13 12:00:00 25.1 20 Sudoeste 27 Sudoeste 0 -- -- 56
2019-07-13 11:00:00 24.3 9 Sudoeste 15 Sudoeste 0 -- -- 55
2019-07-13 10:00:00 22.5 9 Oeste 17 Oeste 0 -- -- 60
2019-07-13 09:00:00 20.9 9 Sudoeste 15 Sudoeste 0 -- -- 69
2019-07-13 08:00:00 20.9 8 Oeste 20 Oeste 0 -- -- 68
2019-07-13 07:00:00 21.7 13 Sudoeste 20 Sudoeste 0 -- -- 63
2019-07-13 06:00:00 22.7 10 Oeste 20 Oeste 0 -- -- 59
2019-07-13 05:00:00 23.4 8 Oeste 17 Oeste 0 -- -- 56
2019-07-13 04:00:00 24.1 10 Sudoeste 21 Oeste 0 -- -- 52
2019-07-13 03:00:00 24.9 8 Oeste 25 Sudoeste 0 -- -- 48
2019-07-13 02:00:00 26.2 11 Sudoeste 25 Sudoeste 0 -- -- 45
2019-07-13 01:00:00 28.3 5 Sudeste 13 Este 0 -- -- 36
2019-07-13 00:00:00 29.6 4 Este 18 Nordeste 0 -- -- 35
2019-07-12 23:00:00 30.4 10 Nordeste 19 Este 0 -- -- 33
2019-07-12 22:00:00 30.3 7 Nordeste 10 Este 0 -- -- 33
2019-07-12 21:00:00 30.7 7 Norte 16 Oeste 0 -- -- 34
2019-07-12 20:00:00 32.5 2 Norte 16 Sudoeste 0 -- -- 31
2019-07-12 19:00:00 32.4 10 Oeste 34 Sudoeste 0 -- -- 30
2019-07-12 18:00:00 34 23 Sudoeste 38 Sudoeste 0 -- -- 29
2019-07-12 17:00:00 35.1 6 Norte 13 Oeste 0 -- -- 25
2019-07-12 16:00:00 34.9 4 Oeste 23 Norte 0 -- -- 25
2019-07-12 15:00:00 33.1 6 Nordeste 15 Sudeste 0 -- -- 28
2019-07-12 14:00:00 32.2 3 Este 12 Sur 0 -- -- 31
2019-07-12 13:00:00 30.2 5 Este 11 Norte 0 -- -- 34
2019-07-12 12:00:00 28.4 4 Sur 12 Sur 0 -- -- 37
2019-07-12 11:00:00 28.5 5 Sudoeste 13 Sur 0 -- -- 37
2019-07-12 10:00:00 27.2 0 Calma 8 Oeste 0 -- -- 39
2019-07-12 09:00:00 24.1 5 Oeste 12 Sudoeste 0 -- -- 46
2019-07-12 08:00:00 22.3 9 Sudoeste 17 Sudoeste 0 -- -- 50
2019-07-12 07:00:00 22.4 9 Oeste 17 Sudoeste 0 -- -- 49
2019-07-12 06:00:00 23.1 12 Sudoeste 18 Sudoeste 0 -- -- 46
2019-07-12 05:00:00 24.1 7 Sudoeste 21 Sudoeste 0 -- -- 43
2019-07-12 04:00:00 25.6 16 Sudoeste 31 Sudoeste 0 -- -- 40
2019-07-12 03:00:00 27.2 17 Oeste 26 Oeste 0 -- -- 35
2019-07-12 02:00:00 27.4 3 Sudeste 8 Sudeste 0 -- -- 29
2019-07-12 01:00:00 28.7 5 Sur 10 Sur 0 -- -- 26
2019-07-12 00:00:00 30 5 Nordeste 11 Nordeste 0 -- -- 25
2019-07-11 23:00:00 29.9 6 Nordeste 8 Norte 0 -- -- 26
2019-07-11 22:00:00 32.5 7 Norte 9 Norte 0 -- -- 23
2019-07-11 21:00:00 36.8 5 Oeste 14 Noroeste 0 -- -- 18
2019-07-11 20:00:00 38 6 Noroeste 18 Sudoeste 0 -- -- 17
2019-07-11 19:00:00 38.2 11 Sudoeste 31 Oeste 0 -- -- 18
2019-07-11 18:00:00 37.9 11 Oeste 26 Sudoeste 0 -- -- 18
2019-07-11 17:00:00 37.8 17 Sudoeste 26 Sudoeste 0 -- -- 19
2019-07-11 16:00:00 37.6 6 Nordeste 21 Sudeste 0 -- -- 19
2019-07-11 15:00:00 37 5 Este 17 Nordeste 0 -- -- 20
2019-07-11 14:00:00 35.8 8 Sudoeste 19 Oeste 0 -- -- 22
2019-07-11 13:00:00 35 7 Sudeste 21 Este 0 -- -- 23
2019-07-11 12:00:00 33.2 7 Este 18 Este 0 -- -- 26
2019-07-11 11:00:00 32.1 7 Este 18 Sudeste 0 -- -- 26
2019-07-11 10:00:00 30.5 8 Este 18 Este 0 -- -- 28
2019-07-11 09:00:00 27.7 7 Nordeste 18 Nordeste 0 -- -- 32
2019-07-11 08:00:00 25.2 6 Este 15 Nordeste 0 -- -- 35
2019-07-11 07:00:00 24 8 Nordeste 14 Este 0 -- -- 37
2019-07-11 06:00:00 23.5 3 Este 10 Nordeste 0 -- -- 38
2019-07-11 05:00:00 23 4 Este 10 Este 0 -- -- 39
2019-07-11 04:00:00 23.3 3 Este 9 Nordeste 0 -- -- 38
2019-07-11 03:00:00 24.3 3 Este 13 Este 0 -- -- 37
2019-07-11 02:00:00 24.7 6 Nordeste 10 Este 0 -- -- 36
2019-07-11 01:00:00 25.4 5 Nordeste 14 Nordeste 0 -- -- 37
2019-07-11 00:00:00 27.6 8 Nordeste 17 Nordeste 0 -- -- 31
2019-07-10 23:00:00 27.5 8 Nordeste 13 Nordeste 0 -- -- 33
2019-07-10 22:00:00 29.4 6 Nordeste 9 Norte 0 -- -- 31
2019-07-10 21:00:00 32 7 Noroeste 17 Sudoeste 0 -- -- 26
2019-07-10 20:00:00 34 8 Sudoeste 19 Sudoeste 0 -- -- 23
2019-07-10 19:00:00 34.3 9 Sudoeste 23 Sudoeste 0 -- -- 23
2019-07-10 18:00:00 35.1 5 Sudeste 17 Sudeste 0 -- -- 22
2019-07-10 17:00:00 34.2 5 Sur 19 Nordeste 0 -- -- 23
2019-07-10 16:00:00 34.1 6 Este 20 Nordeste 0 -- -- 23
2019-07-10 15:00:00 33.7 10 Sur 34 Noroeste 0 -- -- 24
2019-07-10 14:00:00 32.5 6 Sur 27 Sudoeste 0 -- -- 26
2019-07-10 13:00:00 30.7 8 Nordeste 22 Este 0 -- -- 28
2019-07-10 12:00:00 29.5 10 Este 22 Este 0 -- -- 32
2019-07-10 11:00:00 27.6 9 Este 24 Nordeste 0 -- -- 35
2019-07-10 10:00:00 25.7 9 Este 24 Sudeste 0 -- -- 39
2019-07-10 09:00:00 23.2 6 Este 21 Este 0 -- -- 45
2019-07-10 08:00:00 20.8 6 Este 18 Nordeste 0 -- -- 51
2019-07-10 07:00:00 19.5 4 Este 12 Este 0 -- -- 53
2019-07-10 06:00:00 20.7 4 Este 13 Este 0 -- -- 51
2019-07-10 05:00:00 22 6 Este 18 Nordeste 0 -- -- 47
2019-07-10 04:00:00 22.9 8 Este 18 Este 0 -- -- 45
2019-07-10 03:00:00 23 10 Nordeste 18 Nordeste 0 -- -- 45
2019-07-10 02:00:00 22.9 6 Nordeste 13 Norte 0 -- -- 45
2019-07-10 01:00:00 22.6 5 Norte 8 Norte 0 -- -- 45
2019-07-10 00:00:00 22.5 6 Norte 9 Norte 0 -- -- 45
2019-07-09 23:00:00 23.9 5 Noroeste 13 Oeste 0 -- -- 42
2019-07-09 22:00:00 25.8 7 Oeste 15 Sudoeste 0 -- -- 38
2019-07-09 21:00:00 27.9 11 Sudoeste 18 Oeste 0 -- -- 34
2019-07-09 20:00:00 29.4 9 Sudoeste 23 Oeste 0 -- -- 32
2019-07-09 19:00:00 28.8 13 Sudoeste 25 Sudoeste 0 -- -- 34
2019-07-09 18:00:00 29.2 15 Sudoeste 28 Sudoeste 0 -- -- 33
2019-07-09 17:00:00 28.6 12 Oeste 26 Sur 0 -- -- 35
2019-07-09 16:00:00 28 10 Sudoeste 28 Sudoeste 0 -- -- 35
2019-07-09 15:00:00 27.3 14 Sudoeste 26 Oeste 0 -- -- 36
2019-07-09 14:00:00 26.2 12 Sudoeste 24 Sudoeste 0 -- -- 38
2019-07-09 13:00:00 24.2 8 Oeste 22 Sudoeste 0 -- -- 43
2019-07-09 12:00:00 22.7 11 Sudoeste 26 Sudoeste 0 -- -- 47
2019-07-09 11:00:00 21.4 13 Sudoeste 21 Oeste 0 -- -- 50
2019-07-09 10:00:00 19.1 7 Sudoeste 13 Sudoeste 0 -- -- 62
2019-07-09 09:00:00 16.9 8 Sudoeste 14 Sudoeste 0 -- -- 70
2019-07-09 08:00:00 14.8 3 Sudoeste 5 Sudoeste 0 -- -- 75
2019-07-09 07:00:00 14.4 0 Calma 12 Sudoeste 0 -- -- 73
2019-07-09 06:00:00 15.6 8 Sudoeste 14 Sudoeste 0 -- -- 67
2019-07-09 05:00:00 15.6 4 Sur 10 Sudoeste 0 -- -- 64
2019-07-09 04:00:00 16.9 5 Oeste 9 Oeste 0 -- -- 60
2019-07-09 03:00:00 17.3 6 Noroeste 10 Oeste 0 -- -- 60
2019-07-09 02:00:00 17.6 3 Oeste 12 Sudoeste 0 -- -- 57
2019-07-09 01:00:00 17.2 4 Sudoeste 8 Sudoeste 0 -- -- 57
2019-07-09 00:00:00 17.8 4 Norte 8 Norte 0 -- -- 56
2019-07-08 23:00:00 20 3 Norte 20 Norte 0 -- -- 49
2019-07-08 22:00:00 21.3 13 Norte 31 Norte 0 -- -- 47
2019-07-08 21:00:00 23.4 12 Sudoeste 34 Sudoeste 0 -- -- 40
2019-07-08 20:00:00 25 18 Oeste 30 Sudoeste 0 -- -- 37
2019-07-08 19:00:00 25.5 18 Sudoeste 31 Sudoeste 0 -- -- 34
2019-07-08 18:00:00 25.8 21 Sudoeste 39 Sudoeste 0 -- -- 35
2019-07-08 17:00:00 25.5 16 Sudoeste 35 Oeste 0 -- -- 36
2019-07-08 16:00:00 25.9 20 Sudoeste 35 Oeste 0 -- -- 35
2019-07-08 15:00:00 25 15 Sudoeste 31 Oeste 0 -- -- 37
2019-07-08 14:00:00 24.7 13 Oeste 30 Sudoeste 0 -- -- 42
2019-07-08 13:00:00 23.6 16 Oeste 28 Oeste 0 -- -- 47
2019-07-08 12:00:00 22.8 13 Sudoeste 25 Sudoeste 0 -- -- 51
2019-07-08 11:00:00 21.1 12 Oeste 20 Sudoeste 0 -- -- 56
2019-07-08 10:00:00 19 9 Sudoeste 16 Sudoeste 0 -- -- 65
2019-07-08 09:00:00 16.9 11 Sudoeste 15 Sudoeste 0 -- -- 74
2019-07-08 08:00:00 15.6 5 Sudoeste 10 Oeste 0 -- -- 77
2019-07-08 07:00:00 15.5 6 Sudoeste 9 Sudoeste 0 -- -- 74
2019-07-08 06:00:00 17.4 4 Sur 11 Noroeste 0 -- -- 62
2019-07-08 05:00:00 18.1 4 Noroeste 15 Noroeste 0 -- -- 61
2019-07-08 04:00:00 19 9 Noroeste 17 Noroeste 0 -- -- 56
2019-07-08 03:00:00 19.6 9 Noroeste 17 Oeste 0 -- -- 53
2019-07-08 02:00:00 20.1 9 Noroeste 20 Noroeste 0 -- -- 52
2019-07-08 01:00:00 21.3 11 Oeste 23 Noroeste 0 -- -- 49
2019-07-08 00:00:00 22.5 11 Oeste 19 Oeste 0 -- -- 44
2019-07-07 23:00:00 23.6 8 Oeste 17 Oeste 0 -- -- 34
2019-07-07 22:00:00 25.9 11 Oeste 25 Oeste 0 -- -- 27
2019-07-07 21:00:00 29 12 Sudoeste 22 Oeste 0 -- -- 28
2019-07-07 20:00:00 29.1 15 Oeste 23 Oeste 0 -- -- 30
2019-07-07 19:00:00 29.1 16 Oeste 31 Sudoeste 0 -- -- 31
2019-07-07 18:00:00 29.4 15 Oeste 26 Oeste 0 -- -- 27
2019-07-07 17:00:00 29.7 15 Oeste 37 Sudoeste 0 -- -- 25
2019-07-07 16:00:00 29.8 10 Oeste 31 Oeste 0 -- -- 30
2019-07-07 15:00:00 29.8 8 Sudoeste 26 Sudoeste 0 -- -- 26
2019-07-07 14:00:00 28.4 12 Oeste 24 Sudoeste 0 -- -- 31
2019-07-07 13:00:00 27.2 9 Oeste 18 Sudoeste 0 -- -- 41
2019-07-07 12:00:00 25.4 5 Sudoeste 17 Sudoeste 0 -- -- 49
2019-07-07 11:00:00 23.2 8 Oeste 14 Oeste 0 -- -- 56
2019-07-07 10:00:00 20.7 4 Noroeste 9 Noroeste 0 -- -- 65
2019-07-07 09:00:00 19.8 3 Sur 10 Sur 0 -- -- 67
2019-07-07 08:00:00 18.5 0 Calma 8 Norte 0 -- -- 70
2019-07-07 07:00:00 17.4 5 Norte 13 Noroeste 0 -- -- 72
2019-07-07 06:00:00 18 6 Noroeste 14 Noroeste 0 -- -- 71
2019-07-07 05:00:00 18.9 9 Noroeste 22 Noroeste 0 -- -- 64
2019-07-07 04:00:00 19.9 8 Noroeste 15 Noroeste 0 -- -- 53
2019-07-07 03:00:00 20.8 9 Noroeste 19 Norte 0 -- -- 46
2019-07-07 02:00:00 20.9 6 Noroeste 9 Oeste 0 -- -- 40
2019-07-07 01:00:00 21.5 8 Oeste 13 Sudoeste 0 -- -- 41
2019-07-07 00:00:00 22.5 8 Sudoeste 14 Sudoeste 0 -- -- 41
2019-07-06 23:00:00 24 4 Sudoeste 13 Oeste 0 -- -- 34
2019-07-06 22:00:00 26.4 9 Oeste 24 Oeste 0 -- -- 31
2019-07-06 21:00:00 29 12 Oeste 26 Oeste 0 -- -- 29
2019-07-06 20:00:00 29.9 14 Noroeste 27 Oeste 0 -- -- 27
2019-07-06 19:00:00 30.1 17 Oeste 32 Noroeste 0 -- -- 26
2019-07-06 18:00:00 30.2 19 Oeste 30 Sudoeste 0 -- -- 22
2019-07-06 17:00:00 29.6 18 Sudoeste 32 Sudoeste 0 -- -- 27
2019-07-06 16:00:00 29.3 20 Sudoeste 32 Sudoeste 0 -- -- 28
2019-07-06 15:00:00 28.7 14 Sudoeste 35 Oeste 0 -- -- 28
2019-07-06 14:00:00 28 13 Sudoeste 27 Sudoeste 0 -- -- 34
2019-07-06 13:00:00 27 12 Sudoeste 25 Oeste 0 -- -- 35
2019-07-06 12:00:00 25.3 9 Sudoeste 18 Oeste 0 -- -- 42
2019-07-06 11:00:00 23.6 5 Oeste 13 Oeste 0 -- -- 49
2019-07-06 10:00:00 21.1 4 Sudoeste 9 Sur 0 -- -- 56
2019-07-06 09:00:00 17.4 4 Oeste 9 Oeste 0 -- -- 70
2019-07-06 08:00:00 15.6 0 Calma 8 Sudeste 0 -- -- 78
2019-07-06 07:00:00 15.7 4 Sudeste 9 Sudeste 0 -- -- 65
2019-07-06 06:00:00 16.3 3 Este 7 Sudeste 0 -- -- 65
2019-07-06 05:00:00 18.3 0 Calma 9 Norte 0 -- -- 50
2019-07-06 04:00:00 20.2 4 Norte 13 Noroeste 0 -- -- 44
2019-07-06 03:00:00 21.2 5 Noroeste 12 Noroeste 0 -- -- 42
2019-07-06 02:00:00 20.5 5 Oeste 10 Oeste 0 -- -- 45
2019-07-06 01:00:00 21.3 4 Oeste 8 Oeste 0 -- -- 44
2019-07-06 00:00:00 22.5 2 Noroeste 9 Noroeste 0 -- -- 41
2019-07-05 23:00:00 24.4 5 Noroeste 15 Sudoeste 0 -- -- 39
2019-07-05 22:00:00 26.5 6 Oeste 14 Noroeste 0 -- -- 33
2019-07-05 21:00:00 29.2 9 Oeste 19 Oeste 0 -- -- 29
2019-07-05 20:00:00 30.1 12 Oeste 24 Oeste 0 -- -- 27
2019-07-05 19:00:00 30.3 10 Oeste 27 Sudoeste 0 -- -- 27
2019-07-05 18:00:00 30.4 12 Sudoeste 29 Oeste 0 -- -- 28
2019-07-05 17:00:00 29.8 12 Sudoeste 27 Oeste 0 -- -- 28
2019-07-05 16:00:00 29 13 Sudoeste 25 Oeste 0 -- -- 27
2019-07-05 15:00:00 28.5 10 Sudoeste 27 Sudoeste 0 -- -- 30
2019-07-05 14:00:00 26.9 15 Oeste 26 Sudoeste 0 -- -- 32
2019-07-05 13:00:00 25.9 11 Sudoeste 22 Sur 0 -- -- 42
2019-07-05 12:00:00 24.4 13 Sudoeste 21 Sur 0 -- -- 50
2019-07-05 11:00:00 23.3 11 Sudoeste 18 Sudoeste 0 -- -- 54
2019-07-05 10:00:00 21.8 5 Sur 13 Sudeste 0 -- -- 57
2019-07-05 09:00:00 18 2 Sur 5 Este 0 -- -- 71
2019-07-05 08:00:00 15.5 3 Sudeste 5 Este 0 -- -- 78
2019-07-05 07:00:00 14.4 2 Sudoeste 4 Sudoeste 0 -- -- 81
2019-07-05 06:00:00 15.7 0 Calma 7 Sudoeste 0 -- -- 72
2019-07-05 05:00:00 16.6 0 Calma 7 Sudoeste 0 -- -- 70
2019-07-05 04:00:00 17.4 2 Oeste 14 Sudoeste 0 -- -- 65
2019-07-05 03:00:00 17.7 5 Sur 10 Sur 0 -- -- 66
2019-07-05 02:00:00 18.2 2 Sur 9 Sudoeste 0 -- -- 61
2019-07-05 01:00:00 19.4 0 Calma 9 Sur 0 -- -- 59
2019-07-05 00:00:00 21.6 5 Sur 19 Sudoeste 0 -- -- 50
2019-07-04 23:00:00 23.8 11 Sudoeste 16 Sudoeste 0 -- -- 43
2019-07-04 22:00:00 25.4 5 Oeste 13 Oeste 0 -- -- 38
2019-07-04 21:00:00 28.2 13 Oeste 23 Sudoeste 0 -- -- 34
2019-07-04 20:00:00 29.7 15 Sudoeste 27 Sudoeste 0 -- -- 33
2019-07-04 19:00:00 30.3 12 Sudoeste 28 Sudoeste 0 -- -- 29
2019-07-04 18:00:00 30.5 12 Sudoeste 29 Sudoeste 0 -- -- 31
2019-07-04 17:00:00 30 10 Sudoeste 31 Sudoeste 0 -- -- 34
2019-07-04 16:00:00 29.3 11 Sur 28 Sudoeste 0 -- -- 37
2019-07-04 15:00:00 27.8 11 Sur 37 Sudoeste 0 -- -- 39
2019-07-04 14:00:00 27 18 Sudoeste 28 Sudoeste 0 -- -- 45
2019-07-04 13:00:00 26.2 9 Sur 21 Sur 0 -- -- 46
2019-07-04 12:00:00 24 8 Oeste 18 Sudoeste 0 -- -- 54
2019-07-04 11:00:00 22.6 5 Sudoeste 14 Sudoeste 0 -- -- 56
2019-07-04 10:00:00 21.4 4 Sudoeste 11 Sudoeste 0 -- -- 60
2019-07-04 09:00:00 19.5 3 Oeste 8 Oeste 0 -- -- 66
2019-07-04 08:00:00 17.5 2 Oeste 7 Sudoeste 0 -- -- 70
2019-07-04 07:00:00 17.2 0 Calma 8 Oeste 0 -- -- 70
2019-07-04 06:00:00 17.7 3 Oeste 10 Sudoeste 0 -- -- 67
2019-07-04 05:00:00 18.3 0 Calma 10 Sudoeste 0 -- -- 63
2019-07-04 04:00:00 19 3 Sudoeste 9 Sudoeste 0 -- -- 59
2019-07-04 03:00:00 20.2 6 Sudoeste 13 Sudoeste 0 -- -- 54
2019-07-04 02:00:00 20.9 5 Oeste 11 Sudoeste 0 -- -- 53
2019-07-04 01:00:00 21.5 2 Noroeste 14 Sudoeste 0 -- -- 54
2019-07-04 00:00:00 23.8 7 Sudoeste 12 Oeste 0 -- -- 45
2019-07-03 23:00:00 25.4 8 Sudoeste 16 Sudoeste 0 -- -- 43
2019-07-03 22:00:00 26.9 10 Oeste 17 Oeste 0 -- -- 37
2019-07-03 21:00:00 29.1 12 Sudoeste 25 Oeste 0 -- -- 34
2019-07-03 20:00:00 32.4 14 Sudoeste 24 Oeste 0 -- -- 27
2019-07-03 19:00:00 33.1 10 Sudoeste 37 Sudoeste 0 -- -- 29
2019-07-03 18:00:00 32.8 19 Sudoeste 34 Sudoeste 0 -- -- 32
2019-07-03 17:00:00 32.8 9 Sur 25 Sudeste 0 -- -- 29
2019-07-03 16:00:00 32.3 8 Sur 27 Sur 0 -- -- 28
2019-07-03 15:00:00 30.6 13 Sudoeste 28 Sudoeste 0 -- -- 29
2019-07-03 14:00:00 29.1 13 Oeste 23 Oeste 0 -- -- 32
2019-07-03 13:00:00 28.3 11 Sudoeste 24 Sudoeste 0 -- -- 33
2019-07-03 12:00:00 26.6 10 Sudoeste 22 Sudoeste 0 -- -- 40
2019-07-03 11:00:00 24.5 5 Sudoeste 11 Sudoeste 0 -- -- 47
2019-07-03 10:00:00 21.9 4 Sudoeste 9 Sudoeste 0 -- -- 52
2019-07-03 09:00:00 18.5 0 Calma 4 Sur 0 -- -- 66
2019-07-03 08:00:00 17.1 3 Sudoeste 4 Sur 0 -- -- 69
2019-07-03 07:00:00 17.9 2 Sur 6 Sudeste 0 -- -- 62
2019-07-03 06:00:00 19.4 0 Calma 5 Noroeste 0 -- -- 45
2019-07-03 05:00:00 20 2 Noroeste 8 Noroeste 0 -- -- 45
2019-07-03 04:00:00 20.5 3 Norte 7 Nordeste 0 -- -- 42
2019-07-03 03:00:00 21.1 4 Norte 11 Noroeste 0 -- -- 40
2019-07-03 02:00:00 23.1 6 Noroeste 12 Noroeste 0 -- -- 33
2019-07-03 01:00:00 24 4 Sudoeste 12 Noroeste 0 -- -- 31
2019-07-03 00:00:00 23.2 5 Noroeste 9 Oeste 0 -- -- 39
2019-07-02 23:00:00 25.7 8 Oeste 14 Sudoeste 0 -- -- 37
2019-07-02 22:00:00 28 11 Sudoeste 21 Oeste 0 -- -- 34
2019-07-02 21:00:00 31 11 Oeste 22 Oeste 0 -- -- 27
2019-07-02 20:00:00 31.8 12 Oeste 23 Sudoeste 0 -- -- 27
2019-07-02 19:00:00 32.4 13 Sudoeste 29 Sudoeste 0 -- -- 26
2019-07-02 18:00:00 32.4 6 Norte 26 Oeste 0 -- -- 24
2019-07-02 17:00:00 31.4 17 Oeste 31 Sudoeste 0 -- -- 20
2019-07-02 16:00:00 31.3 18 Oeste 29 Sudoeste 0 -- -- 20
2019-07-02 15:00:00 30.1 15 Sudoeste 28 Sudoeste 0 -- -- 24
2019-07-02 14:00:00 29 15 Oeste 31 Oeste 0 -- -- 29
2019-07-02 13:00:00 27.2 12 Oeste 21 Oeste 0 -- -- 38
2019-07-02 12:00:00 25.2 8 Oeste 16 Sudoeste 0 -- -- 45
2019-07-02 11:00:00 22.3 8 Oeste 14 Oeste 0 -- -- 53
2019-07-02 10:00:00 20.8 6 Oeste 10 Oeste 0 -- -- 61
2019-07-02 09:00:00 16.7 6 Oeste 10 Oeste 0 -- -- 79
2019-07-02 08:00:00 15 4 Sudoeste 8 Sudoeste 0 -- -- 83
2019-07-02 07:00:00 14.7 2 Nordeste 8 Oeste 0 -- -- 83
2019-07-02 06:00:00 15.3 3 Oeste 8 Sudoeste 0 -- -- 78
2019-07-02 05:00:00 16.6 3 Oeste 9 Sur 0 -- -- 69
2019-07-02 04:00:00 19.1 5 Sudoeste 13 Noroeste 0 -- -- 54
2019-07-02 03:00:00 20 5 Oeste 12 Oeste 0 -- -- 49
2019-07-02 02:00:00 22.1 5 Oeste 13 Noroeste 0 -- -- 39
2019-07-02 01:00:00 23.7 8 Noroeste 12 Noroeste 0 -- -- 34
2019-07-02 00:00:00 23.7 9 Oeste 11 Oeste 0 -- -- 28
2019-07-01 23:00:00 24.4 5 Sudoeste 15 Oeste 0 -- -- 32
2019-07-01 22:00:00 26.8 10 Sudoeste 24 Sudoeste 0 -- -- 29
2019-07-01 21:00:00 30.5 18 Sudoeste 28 Sudoeste 0 -- -- 23
2019-07-01 20:00:00 31.9 15 Sudoeste 26 Oeste 0 -- -- 21
2019-07-01 19:00:00 31.8 16 Oeste 30 Sudoeste 0 -- -- 22
2019-07-01 18:00:00 31.8 18 Sudoeste 38 Sudoeste 0 -- -- 23
2019-07-01 17:00:00 31.2 18 Oeste 34 Sudoeste 0 -- -- 29
2019-07-01 16:00:00 30.6 17 Sudoeste 32 Sudoeste 0 -- -- 33
2019-07-01 15:00:00 29.3 17 Oeste 31 Oeste 0 -- -- 36
2019-07-01 14:00:00 28.2 17 Oeste 33 Oeste 0 -- -- 37
2019-07-01 13:00:00 26.1 17 Sudoeste 27 Oeste 0 -- -- 42
2019-07-01 12:00:00 24.6 15 Oeste 22 Oeste 0 -- -- 45
2019-07-01 11:00:00 22.1 12 Oeste 18 Oeste 0 -- -- 59
2019-07-01 10:00:00 20.5 10 Sudoeste 14 Sudoeste 0 -- -- 64
2019-07-01 09:00:00 18.6 8 Oeste 12 Oeste 0 -- -- 71
2019-07-01 08:00:00 16.8 5 Oeste 9 Oeste 0 -- -- 78
2019-07-01 07:00:00 16.6 3 Sudoeste 8 Sudoeste 0 -- -- 77
2019-07-01 06:00:00 17.9 6 Oeste 21 Sudoeste 0 -- -- 73
2019-07-01 05:00:00 20.1 12 Sudoeste 18 Sudoeste 0 -- -- 63
2019-07-01 04:00:00 21.7 4 Sudoeste 11 Noroeste 0 -- -- 54
2019-07-01 03:00:00 23.3 8 Noroeste 19 Noroeste 0 -- -- 52
2019-07-01 02:00:00 24.4 9 Noroeste 18 Noroeste 0 -- -- 51
2019-07-01 01:00:00 25.8 10 Noroeste 18 Noroeste 0 -- -- 47
2019-07-01 00:00:00 26.7 9 Oeste 17 Oeste 0 -- -- 39
2019-06-30 23:00:00 28.4 10 Oeste 18 Oeste 0 -- -- 34
2019-06-30 22:00:00 30.3 9 Oeste 22 Oeste 0 -- -- 29
2019-06-30 21:00:00 33 16 Oeste 26 Oeste 0 -- -- 29
2019-06-30 20:00:00 34.5 11 Oeste 27 Oeste 0 -- -- 28
2019-06-30 19:00:00 34.6 12 Noroeste 25 Oeste 0 -- -- 28
2019-06-30 18:00:00 35.4 8 Oeste 23 Oeste 0 -- -- 25
2019-06-30 17:00:00 35.4 8 Sur 28 Sudoeste 0 -- -- 23
2019-06-30 16:00:00 34.7 11 Sudoeste 28 Sudoeste 0 -- -- 25
2019-06-30 15:00:00 34 16 Sudoeste 30 Sudoeste 0 -- -- 27
2019-06-30 14:00:00 32.7 11 Sur 33 Sudoeste 0 -- -- 31
2019-06-30 13:00:00 31.3 11 Sudoeste 22 Sur 0 -- -- 33
2019-06-30 12:00:00 29.7 10 Sudoeste 22 Sudoeste 0 -- -- 38
2019-06-30 11:00:00 27.8 11 Sudoeste 22 Sudoeste 0 -- -- 40
2019-06-30 10:00:00 26.7 10 Oeste 15 Sudoeste 0 -- -- 43
2019-06-30 09:00:00 24.6 11 Sudoeste 16 Oeste 0 -- -- 50
2019-06-30 08:00:00 20.8 2 Noroeste 9 Sudoeste 0 -- -- 67
2019-06-30 07:00:00 19.2 2 Oeste 8 Sudoeste 0 -- -- 74
2019-06-30 06:00:00 20.3 0 Calma 9 Sudoeste 0 -- -- 69
2019-06-30 05:00:00 21.6 5 Oeste 18 Sudoeste 0 -- -- 64
2019-06-30 04:00:00 23.5 8 Sudoeste 16 Sudoeste 0 -- -- 53
2019-06-30 03:00:00 24.6 13 Oeste 21 Sudoeste 0 -- -- 50
2019-06-30 02:00:00 25.7 7 Sudoeste 15 Sudoeste 0 -- -- 45
2019-06-30 01:00:00 27 12 Sudoeste 17 Sudoeste 0 -- -- 43
2019-06-30 00:00:00 28.6 7 Oeste 19 Sudoeste 0 -- -- 41
2019-06-29 23:00:00 31 12 Sudoeste 21 Sudoeste 0 -- -- 33
2019-06-29 22:00:00 33.2 2 Norte 9 Oeste 0 -- -- 22
2019-06-29 21:00:00 36.6 7 Noroeste 17 Oeste 0 -- -- 18
2019-06-29 20:00:00 38 7 Oeste 17 Oeste 0 -- -- 18
2019-06-29 19:00:00 38.2 9 Oeste 21 Oeste 0 -- -- 17
2019-06-29 18:00:00 38.2 12 Oeste 22 Sudoeste 0 -- -- 19
2019-06-29 17:00:00 37.8 14 Sudoeste 27 Oeste 0 -- -- 19
2019-06-29 16:00:00 37.1 14 Sudoeste 23 Sudoeste 0 -- -- 23
2019-06-29 15:00:00 36.5 6 Noroeste 19 Sudoeste 0 -- -- 24
2019-06-29 14:00:00 34.8 8 Sudoeste 20 Sudoeste 0 -- -- 29
2019-06-29 13:00:00 33.5 8 Sudoeste 15 Sudoeste 0 -- -- 31
2019-06-29 12:00:00 31.5 6 Oeste 12 Sudoeste 0 -- -- 37
2019-06-29 11:00:00 28.7 3 Sur 10 Noroeste 0 -- -- 44
2019-06-29 10:00:00 26.1 7 Noroeste 10 Noroeste 0 -- -- 51
2019-06-29 09:00:00 24.2 2 Este 6 Nordeste 0 -- -- 54
2019-06-29 08:00:00 20.3 4 Norte 9 Sudeste 0 -- -- 68
2019-06-29 07:00:00 19.6 3 Este 6 Este 0 -- -- 68
2019-06-29 06:00:00 20.7 5 Oeste 15 Sudoeste 0 -- -- 66
2019-06-29 05:00:00 21.3 5 Oeste 9 Sudoeste 0 -- -- 62
2019-06-29 04:00:00 23 2 Nordeste 9 Sudoeste 0 -- -- 54
2019-06-29 03:00:00 23.9 4 Norte 11 Sur 0 -- -- 51
2019-06-29 02:00:00 25.1 5 Sur 10 Sur 0 -- -- 46
2019-06-29 01:00:00 26.9 6 Sur 9 Sudoeste 0 -- -- 40
2019-06-29 00:00:00 28.4 2 Norte 13 Oeste 0 -- -- 35
2019-06-28 23:00:00 30.9 8 Oeste 13 Sudoeste 0 -- -- 29
2019-06-28 22:00:00 32.9 8 Oeste 19 Oeste 0 -- -- 26
2019-06-28 21:00:00 36 14 Oeste 23 Oeste 0 -- -- 24
2019-06-28 20:00:00 38.2 11 Oeste 23 Oeste 0 -- -- 21
2019-06-28 19:00:00 39.5 7 Sur 26 Sudoeste 0 -- -- 20
2019-06-28 18:00:00 38.6 8 Sudoeste 21 Oeste 0 -- -- 22
2019-06-28 17:00:00 37.8 14 Sudoeste 30 Oeste 0 -- -- 24
2019-06-28 16:00:00 37.2 16 Sudoeste 30 Sudoeste 0 -- -- 26
2019-06-28 15:00:00 38.3 9 Sudeste 29 Sudeste 0 -- -- 21
2019-06-28 14:00:00 35.7 9 Este 24 Este 0 -- -- 27
2019-06-28 13:00:00 34.5 9 Sudeste 24 Este 0 -- -- 29
2019-06-28 12:00:00 32.2 9 Este 20 Sudeste 0 -- -- 36
2019-06-28 11:00:00 30.5 9 Este 22 Sudeste 0 -- -- 38
2019-06-28 10:00:00 27 3 Nordeste 7 Este 0 -- -- 46
2019-06-28 09:00:00 23.7 3 Sudeste 9 Sudeste 0 -- -- 56
2019-06-28 08:00:00 20.6 2 Este 10 Nordeste 0 -- -- 66
2019-06-28 07:00:00 19.1 4 Nordeste 8 Sudeste 0 -- -- 71
2019-06-28 06:00:00 20.7 4 Este 8 Sudeste 0 -- -- 66
2019-06-28 05:00:00 21.1 4 Norte 9 Noroeste 0 -- -- 57
2019-06-28 04:00:00 22 6 Noroeste 9 Norte 0 -- -- 55
2019-06-28 03:00:00 21.3 3 Norte 6 Norte 0 -- -- 63
2019-06-28 02:00:00 22.2 2 Nordeste 7 Nordeste 0 -- -- 60
2019-06-28 01:00:00 24 5 Oeste 9 Oeste 0 -- -- 55
2019-06-28 00:00:00 25.8 7 Oeste 13 Noroeste 0 -- -- 51
2019-06-27 23:00:00 26.2 6 Oeste 15 Sudoeste 0 -- -- 52
2019-06-27 22:00:00 28.4 9 Oeste 18 Oeste 0 -- -- 45
2019-06-27 21:00:00 30.8 12 Oeste 22 Sudoeste 0 -- -- 39
2019-06-27 20:00:00 32 13 Oeste 26 Noroeste 0 -- -- 37
2019-06-27 19:00:00 32.4 13 Oeste 27 Sudoeste 0 -- -- 36
2019-06-27 18:00:00 33.1 8 Oeste 25 Sudoeste 0 -- -- 35
2019-06-27 17:00:00 32.3 14 Sudoeste 26 Sur 0 -- -- 36
2019-06-27 16:00:00 31.2 12 Sudoeste 36 Sudoeste 0 -- -- 38
2019-06-27 15:00:00 30.4 9 Sudoeste 24 Sudoeste 0 -- -- 39
2019-06-27 14:00:00 28.8 15 Oeste 30 Oeste 0 -- -- 44
2019-06-27 13:00:00 27.9 10 Sudoeste 23 Sudoeste 0 -- -- 45
2019-06-27 12:00:00 26.8 10 Sudoeste 22 Sudoeste 0 -- -- 49
2019-06-27 11:00:00 25.1 8 Oeste 13 Oeste 0 -- -- 50
2019-06-27 10:00:00 23.7 7 Sudoeste 13 Sudoeste 0 -- -- 52
2019-06-27 09:00:00 21.5 5 Oeste 8 Oeste 0 -- -- 58
2019-06-27 08:00:00 19.5 2 Noroeste 6 Oeste 0 -- -- 62
2019-06-27 07:00:00 18.4 3 Oeste 5 Oeste 0 -- -- 65
2019-06-27 06:00:00 18.8 4 Oeste 7 Oeste 0 -- -- 63
2019-06-27 05:00:00 19.7 5 Noroeste 12 Oeste 0 -- -- 59
2019-06-27 04:00:00 20.7 8 Oeste 17 Oeste 0 -- -- 55
2019-06-27 03:00:00 21.6 10 Oeste 16 Oeste 0 -- -- 53
2019-06-27 02:00:00 22.1 8 Sudoeste 12 Sudoeste 0 -- -- 53
2019-06-27 01:00:00 23.8 6 Oeste 15 Sudoeste 0 -- -- 49
2019-06-27 00:00:00 25.1 7 Oeste 17 Oeste 0 -- -- 46
2019-06-26 23:00:00 26 12 Oeste 20 Oeste 0 -- -- 45
2019-06-26 22:00:00 27.8 5 Oeste 14 Oeste 0 -- -- 41
2019-06-26 21:00:00 30.5 10 Oeste 23 Sudoeste 0 -- -- 36
2019-06-26 20:00:00 31.3 13 Oeste 24 Sudoeste 0 -- -- 35
2019-06-26 19:00:00 31.8 14 Oeste 28 Sudoeste 0 -- -- 34
2019-06-26 18:00:00 32.1 13 Sudoeste 27 Sudoeste 0 -- -- 33
2019-06-26 17:00:00 31.3 19 Sudoeste 32 Oeste 0 -- -- 34
2019-06-26 16:00:00 31.1 18 Sudoeste 36 Sudoeste 0 -- -- 34
2019-06-26 15:00:00 30.1 17 Sudoeste 32 Sudoeste 0 -- -- 36
2019-06-26 14:00:00 29.5 10 Sur 26 Sur 0 -- -- 36
2019-06-26 13:00:00 27.6 9 Sur 28 Sudoeste 0 -- -- 40
2019-06-26 12:00:00 26.5 10 Sur 22 Sudoeste 0 -- -- 43
2019-06-26 11:00:00 25 10 Sudoeste 20 Sur 0 -- -- 45
2019-06-26 10:00:00 23.7 6 Sur 13 Sur 0 -- -- 50
2019-06-26 09:00:00 21.2 3 Sudeste 6 Sudeste 0 -- -- 62
2019-06-26 08:00:00 18.4 4 Norte 5 Norte 0 -- -- 72
2019-06-26 07:00:00 16.8 0 Calma 10 Sudoeste 0 -- -- 75
2019-06-26 06:00:00 18.3 5 Sudoeste 9 Sudoeste 0 -- -- 68
2019-06-26 05:00:00 19 2 Sudoeste 11 Sudoeste 0 -- -- 64
2019-06-26 04:00:00 20.4 5 Sudoeste 16 Sudoeste 0 -- -- 60
2019-06-26 03:00:00 22 8 Oeste 17 Sudoeste 0 -- -- 52
2019-06-26 02:00:00 23.1 5 Sur 15 Sudoeste 0 -- -- 45
2019-06-26 01:00:00 24.5 6 Sur 18 Sur 0 -- -- 40
2019-06-26 00:00:00 25 6 Sur 16 Sudoeste 0 -- -- 44
2019-06-25 23:00:00 25.7 2 Sudeste 6 Sudoeste 0 -- -- 43
2019-06-25 22:00:00 28.7 5 Sudoeste 15 Sudoeste 0 -- -- 36
2019-06-25 21:00:00 31.7 12 Sudoeste 24 Sudoeste 0 -- -- 31
2019-06-25 20:00:00 32.5 12 Sudoeste 30 Sudoeste 0 -- -- 29
2019-06-25 19:00:00 33.1 13 Sudoeste 30 Sudoeste 0 -- -- 28
2019-06-25 18:00:00 33.2 12 Sudoeste 27 Sudoeste 0 -- -- 27
2019-06-25 17:00:00 32.6 10 Sudoeste 33 Sudoeste 0 -- -- 29
2019-06-25 16:00:00 31.4 5 Sudoeste 28 Sur 0 -- -- 32
2019-06-25 15:00:00 29.9 12 Sudoeste 28 Oeste 0 -- -- 35
2019-06-25 14:00:00 29.4 11 Sudoeste 24 Sur 0 -- -- 37
2019-06-25 13:00:00 28.4 11 Sudoeste 24 Sudoeste 0 -- -- 37
2019-06-25 12:00:00 26.5 8 Sur 17 Sur 0 -- -- 45
2019-06-25 11:00:00 25.2 5 Sudoeste 14 Sudeste 0 -- -- 48
2019-06-25 10:00:00 22.5 4 Oeste 7 Norte 0 -- -- 50
2019-06-25 09:00:00 19.9 0 Calma 8 Sudeste 0 -- -- 59
2019-06-25 08:00:00 18 2 Este 5 Norte 0 -- -- 65
2019-06-25 07:00:00 15.9 3 Noroeste 5 Noroeste 0 -- -- 70
2019-06-25 06:00:00 16.6 3 Sudeste 7 Sudeste 0 -- -- 65
2019-06-25 05:00:00 17.9 2 Nordeste 5 Noroeste 0 -- -- 63
2019-06-25 04:00:00 18.8 2 Nordeste 12 Noroeste 0 -- -- 59
2019-06-25 03:00:00 18.7 8 Noroeste 12 Noroeste 0 -- -- 60
2019-06-25 02:00:00 18.8 5 Norte 10 Norte 0 -- -- 65
2019-06-25 01:00:00 18.3 7 Norte 15 Norte 0 -- -- 64
2019-06-25 00:00:00 19 9 Noroeste 24 Noroeste 0 -- -- 62
2019-06-24 23:00:00 20.7 13 Noroeste 21 Noroeste 0 -- -- 55
2019-06-24 22:00:00 21.8 10 Noroeste 22 Noroeste 0 -- -- 51
2019-06-24 21:00:00 23.8 13 Noroeste 33 Noroeste 0 -- -- 47
2019-06-24 20:00:00 27.9 18 Norte 28 Norte 0 -- -- 43
2019-06-24 19:00:00 30.1 17 Oeste 31 Oeste 0 -- -- 34
2019-06-24 18:00:00 30.2 12 Sudoeste 32 Sudoeste 0 -- -- 32
2019-06-24 17:00:00 29.9 15 Sudoeste 35 Oeste 0 -- -- 34
2019-06-24 16:00:00 29.8 16 Sudoeste 31 Oeste 0 -- -- 36
2019-06-24 15:00:00 28.5 17 Sudoeste 27 Sudoeste 0 -- -- 38
2019-06-24 14:00:00 27.2 17 Sudoeste 29 Sudoeste 0 -- -- 40
2019-06-24 13:00:00 26.3 10 Sudoeste 20 Sudoeste 0 -- -- 45
2019-06-24 12:00:00 24.6 8 Sudoeste 14 Sudoeste 0 -- -- 57
2019-06-24 11:00:00 22.9 6 Sudoeste 13 Sudoeste 0 -- -- 64
2019-06-24 10:00:00 22.2 2 Sudeste 8 Sudeste 0 -- -- 66
2019-06-24 09:00:00 20.4 3 Sur 7 Sur 0 -- -- 69
2019-06-24 08:00:00 19.4 3 Sudeste 4 Sudeste 0 -- -- 64
2019-06-24 07:00:00 19.7 2 Oeste 6 Oeste 0 -- -- 65
2019-06-24 06:00:00 20.2 4 Noroeste 13 Noroeste 0 -- -- 66
2019-06-24 05:00:00 20.4 6 Noroeste 15 Noroeste 0 -- -- 65
2019-06-24 04:00:00 21 8 Noroeste 13 Noroeste 0 -- -- 61
2019-06-24 03:00:00 22 9 Noroeste 18 Noroeste 0 -- -- 53
2019-06-24 02:00:00 23 8 Noroeste 15 Noroeste 0 -- -- 37
2019-06-24 01:00:00 23.7 6 Noroeste 15 Noroeste 0 -- -- 29
2019-06-24 00:00:00 24.2 6 Noroeste 14 Noroeste 0 -- -- 27
2019-06-23 23:00:00 25 6 Noroeste 20 Oeste 0 -- -- 26
2019-06-23 22:00:00 26.6 8 Oeste 13 Oeste 0 -- -- 31
2019-06-23 21:00:00 28.1 9 Oeste 18 Oeste 0 -- -- 30
2019-06-23 20:00:00 28.8 12 Oeste 20 Sudoeste 0 -- -- 29
2019-06-23 19:00:00 29.9 11 Oeste 26 Oeste 0 -- -- 27
2019-06-23 18:00:00 31.5 11 Sudoeste 23 Sudoeste 0 -- -- 24
2019-06-23 17:00:00 30.9 8 Oeste 25 Sudoeste 0 -- -- 25
2019-06-23 16:00:00 29.6 11 Oeste 27 Sudoeste 0 -- -- 26
2019-06-23 15:00:00 29.6 13 Sudoeste 25 Sudoeste 0 -- -- 27
2019-06-23 14:00:00 28.5 11 Sudoeste 31 Sudoeste 0 -- -- 30
2019-06-23 13:00:00 27.4 10 Oeste 21 Oeste 0 -- -- 29
2019-06-23 12:00:00 26.7 7 Oeste 18 Sudoeste 0 -- -- 28
2019-06-23 11:00:00 25.3 4 Sur 10 Sur 0 -- -- 31
2019-06-23 10:00:00 21.8 2 Este 6 Sudoeste 0 -- -- 39
2019-06-23 09:00:00 18.1 3 Sur 9 Sudeste 0 -- -- 47
2019-06-23 08:00:00 16.1 4 Sudeste 10 Sudeste 0 -- -- 52
2019-06-23 07:00:00 14.5 3 Sudeste 6 Sudeste 0 -- -- 55
2019-06-23 06:00:00 15.7 3 Sudeste 6 Sudoeste 0 -- -- 50
2019-06-23 05:00:00 17 4 Sudoeste 6 Sudoeste 0 -- -- 40
2019-06-23 04:00:00 18.5 0 Calma 5 Oeste 0 -- -- 34
2019-06-23 03:00:00 22.3 6 Noroeste 13 Oeste 0 -- -- 25
2019-06-23 02:00:00 22.6 8 Noroeste 15 Noroeste 0 -- -- 25
2019-06-23 01:00:00 23.8 6 Noroeste 17 Noroeste 0 -- -- 27
2019-06-23 00:00:00 23.4 6 Noroeste 9 Noroeste 0 -- -- 37
2019-06-22 23:00:00 24.8 8 Oeste 13 Sudoeste 0 -- -- 35
2019-06-22 22:00:00 26.6 5 Noroeste 12 Oeste 0 -- -- 31
2019-06-22 21:00:00 29.2 7 Oeste 18 Sur 0 -- -- 26
2019-06-22 20:00:00 31.7 8 Sur 25 Sudoeste 0 -- -- 23
2019-06-22 19:00:00 31.6 7 Sudoeste 18 Oeste 0 -- -- 23
2019-06-22 18:00:00 31 7 Oeste 22 Oeste 0 -- -- 21
2019-06-22 17:00:00 30.6 12 Sudoeste 26 Sudoeste 0 -- -- 22
2019-06-22 16:00:00 30 11 Sudoeste 28 Sudoeste 0 -- -- 23
2019-06-22 15:00:00 28.5 13 Sudoeste 32 Sudoeste 0 -- -- 27
2019-06-22 14:00:00 28.8 13 Sudoeste 32 Sudoeste 0 -- -- 30
2019-06-22 13:00:00 27.2 14 Sudoeste 25 Sudoeste 0 -- -- 31
2019-06-22 12:00:00 27 12 Sudoeste 22 Sudoeste 0 -- -- 36
2019-06-22 11:00:00 25.3 3 Sudeste 22 Oeste 0 -- -- 43
2019-06-22 10:00:00 23.6 3 Sur 8 Sur 0 -- -- 46
2019-06-22 09:00:00 19.7 2 Este 7 Este 0 -- -- 58
2019-06-22 08:00:00 16.5 3 Nordeste 5 Norte 0 -- -- 69
2019-06-22 07:00:00 16.3 3 Sudeste 6 Sudeste 0 -- -- 66
2019-06-22 06:00:00 16.2 4 Sudeste 6 Sudeste 0 -- -- 67
2019-06-22 05:00:00 17.1 3 Este 5 Este 0 -- -- 56
2019-06-22 04:00:00 17.1 0 Calma 6 Sudeste 0 -- -- 58
2019-06-22 03:00:00 18.6 0 Calma 8 Este 0 -- -- 51
2019-06-22 02:00:00 18.3 0 Calma 3 Norte 0 -- -- 53
2019-06-22 01:00:00 19 0 Calma 5 Nordeste 0 -- -- 54
2019-06-22 00:00:00 20.2 5 Norte 9 Noroeste 0 -- -- 52
2019-06-21 23:00:00 22.3 6 Noroeste 14 Oeste 0 -- -- 45
2019-06-21 22:00:00 24.1 9 Oeste 20 Sudoeste 0 -- -- 41
2019-06-21 21:00:00 25.7 13 Sudoeste 24 Sudoeste 0 -- -- 38
2019-06-21 20:00:00 27.6 15 Sudoeste 30 Sudoeste 0 -- -- 36
2019-06-21 19:00:00 28 19 Sudoeste 32 Sudoeste 0 -- -- 35
2019-06-21 18:00:00 28.3 14 Oeste 29 Oeste 0 -- -- 33
2019-06-21 17:00:00 27.7 13 Sudoeste 30 Sudoeste 0 -- -- 31
2019-06-21 16:00:00 27.1 10 Oeste 26 Oeste 0 -- -- 36
2019-06-21 15:00:00 25.7 10 Oeste 26 Sudoeste 0 -- -- 40
2019-06-21 14:00:00 23.9 9 Sudoeste 24 Sudoeste 0 -- -- 48
2019-06-21 13:00:00 21.8 11 Oeste 21 Sudoeste 0 -- -- 53
2019-06-21 12:00:00 20.4 9 Sudoeste 15 Sudoeste 0 -- -- 58
2019-06-21 11:00:00 18.1 6 Oeste 13 Oeste 0 -- -- 65
2019-06-21 10:00:00 15.3 5 Sudoeste 9 Sudoeste 0 -- -- 77
2019-06-21 09:00:00 13.1 5 Sudoeste 10 Sudoeste 0 -- -- 87
2019-06-21 08:00:00 11.8 2 Sur 4 Sur 0 -- -- 89
2019-06-21 07:00:00 11.2 2 Sur 9 Sudoeste 0 -- -- 88
2019-06-21 06:00:00 12.4 5 Oeste 14 Sudoeste 0 -- -- 83
2019-06-21 05:00:00 13.4 9 Sudoeste 15 Sudoeste 0 -- -- 76
2019-06-21 04:00:00 14.3 6 Sudoeste 13 Sudoeste 0 -- -- 72
2019-06-21 03:00:00 16.4 6 Sudoeste 12 Oeste 0 -- -- 65
2019-06-21 02:00:00 17.9 9 Noroeste 18 Oeste 0 -- -- 61
2019-06-21 01:00:00 19.1 11 Oeste 22 Oeste 0 -- -- 57
2019-06-21 00:00:00 19.8 9 Oeste 21 Oeste 0 -- -- 52
2019-06-20 23:00:00 20.7 9 Sudoeste 17 Sudoeste 0 -- -- 47
2019-06-20 22:00:00 22.7 15 Sudoeste 24 Sudoeste 0 -- -- 41
2019-06-20 21:00:00 25.1 15 Oeste 24 Oeste 0 -- -- 34
2019-06-20 20:00:00 25.3 13 Sudoeste 27 Sudoeste 0 -- -- 36
2019-06-20 19:00:00 25.8 13 Sudoeste 35 Oeste 0 -- -- 38
2019-06-20 18:00:00 26.3 18 Sudoeste 31 Oeste 0 -- -- 37
2019-06-20 17:00:00 25.5 12 Oeste 34 Oeste 0 -- -- 39
2019-06-20 16:00:00 25.7 18 Oeste 27 Oeste 0 -- -- 40
2019-06-20 15:00:00 24.6 13 Sudoeste 31 Sudoeste 0 -- -- 44
2019-06-20 14:00:00 24.6 17 Sudoeste 30 Sudoeste 0 -- -- 45
2019-06-20 13:00:00 24.2 18 Sudoeste 28 Sudoeste 0 -- -- 50
2019-06-20 12:00:00 22.8 11 Sudoeste 19 Oeste 0 -- -- 53
2019-06-20 11:00:00 21.4 7 Oeste 12 Oeste 0 -- -- 58
2019-06-20 10:00:00 19.5 5 Sudoeste 8 Sudoeste 0 -- -- 66
2019-06-20 09:00:00 17.6 0 Calma 6 Sudeste 0 -- -- 74
2019-06-20 08:00:00 15.6 0 Calma 3 Sur 0 -- -- 81
2019-06-20 07:00:00 13.7 0 Calma 4 Sudeste 0 -- -- 83
2019-06-20 06:00:00 15.7 3 Oeste 9 Noroeste 0 -- -- 76
2019-06-20 05:00:00 16.4 5 Norte 10 Norte 0 -- -- 73
2019-06-20 04:00:00 17.2 5 Norte 16 Norte 0 -- -- 70
2019-06-20 03:00:00 17.8 7 Noroeste 12 Noroeste 0 -- -- 67
2019-06-20 02:00:00 17.5 3 Noroeste 9 Noroeste 0 -- -- 66
2019-06-20 01:00:00 17.5 4 Noroeste 7 Noroeste 0 -- -- 65
2019-06-20 00:00:00 18 3 Norte 8 Noroeste 0 -- -- 65
2019-06-19 23:00:00 19.2 2 Norte 6 Noroeste 0 -- -- 60
2019-06-19 22:00:00 21.2 5 Oeste 19 Oeste 0 -- -- 54
2019-06-19 21:00:00 23.2 13 Oeste 20 Oeste 0 -- -- 47
2019-06-19 20:00:00 23.7 12 Sudoeste 28 Oeste 0 -- -- 46
2019-06-19 19:00:00 24.7 17 Oeste 30 Sudoeste 0 -- -- 44
2019-06-19 18:00:00 23.6 13 Oeste 29 Oeste 0 -- -- 47
2019-06-19 17:00:00 24.6 9 Oeste 28 Oeste 0 -- -- 45
2019-06-19 16:00:00 23 17 Oeste 30 Oeste 0 -- -- 47
2019-06-19 15:00:00 22.9 12 Oeste 30 Sudoeste 0 -- -- 46
2019-06-19 14:00:00 21.7 18 Sudoeste 30 Sur 0 -- -- 55
2019-06-19 13:00:00 20.7 17 Sudoeste 29 Sudoeste 0 -- -- 59
2019-06-19 12:00:00 -- -- -- -- -- -- -- -- --
2019-06-19 11:00:00 19.1 11 Oeste 22 Sudoeste 0 -- -- 67
2019-06-19 10:00:00 17.8 14 Oeste 22 Oeste 0 -- -- 72
2019-06-19 09:00:00 16.4 11 Sudoeste 18 Sudoeste 0 -- -- 79
2019-06-19 08:00:00 14.7 11 Sudoeste 17 Sudoeste 0 -- -- 84
2019-06-19 07:00:00 14.4 8 Sudoeste 12 Sudoeste 0 -- -- 81
2019-06-19 06:00:00 15.6 10 Sudoeste 14 Oeste 0 -- -- 73
2019-06-19 05:00:00 15.5 8 Oeste 15 Sudoeste 0 -- -- 70
2019-06-19 04:00:00 16.4 8 Oeste 12 Oeste 0 -- -- 66
2019-06-19 03:00:00 16.4 3 Noroeste 10 Oeste 0 -- -- 74
2019-06-19 02:00:00 17.7 6 Oeste 17 Oeste 0 -- -- 70
2019-06-19 01:00:00 19.1 10 Oeste 18 Oeste 0 -- -- 66
2019-06-19 00:00:00 19.8 8 Oeste 22 Oeste 0 -- -- 62
2019-06-18 23:00:00 20.9 12 Oeste 25 Oeste 0 -- -- 57
2019-06-18 22:00:00 22.1 11 Oeste 35 Oeste 0 -- -- 52
2019-06-18 21:00:00 24.5 19 Oeste 41 Sudoeste 0 -- -- 44
2019-06-18 20:00:00 25.5 22 Oeste 40 Oeste 0 -- -- 39
2019-06-18 19:00:00 26.1 22 Oeste 43 Oeste 0 -- -- 41
2019-06-18 18:00:00 26.5 19 Oeste 37 Oeste 0 -- -- 39
2019-06-18 17:00:00 26.4 17 Oeste 43 Oeste 0 -- -- 36
2019-06-18 16:00:00 26.3 21 Oeste 36 Sudoeste 0 -- -- 31
2019-06-18 15:00:00 25.6 18 Sudoeste 37 Oeste 0 -- -- 27
2019-06-18 14:00:00 24.7 16 Sudoeste 32 Oeste 0 -- -- 26
2019-06-18 13:00:00 23.8 17 Sudoeste 28 Sudoeste 0 -- -- 20
2019-06-18 12:00:00 22.3 15 Sudoeste 24 Sudoeste 0 -- -- 24
2019-06-18 11:00:00 21.1 13 Sudoeste 21 Sudoeste 0 -- -- 34
2019-06-18 10:00:00 19.3 6 Oeste 11 Oeste 0 -- -- 46
2019-06-18 09:00:00 17.6 6 Oeste 9 Oeste 0 -- -- 49
2019-06-18 08:00:00 15.3 3 Sur 6 Sur 0 -- -- 58
2019-06-18 07:00:00 14.9 4 Sur 6 Sudoeste 0 -- -- 59
2019-06-18 06:00:00 15.6 3 Sudoeste 7 Sudoeste 0 -- -- 52
2019-06-18 05:00:00 16.7 4 Sudoeste 10 Oeste 0 -- -- 46
2019-06-18 04:00:00 18.3 9 Oeste 13 Sudoeste 0 -- -- 40
2019-06-18 03:00:00 20 8 Sudoeste 15 Sudoeste 0 -- -- 33
2019-06-18 02:00:00 21.9 9 Oeste 16 Oeste 0 -- -- 27
2019-06-18 01:00:00 22.1 8 Oeste 18 Sudoeste 0 -- -- 28
2019-06-18 00:00:00 23.5 11 Sudoeste 19 Sudoeste 0 -- -- 27
2019-06-17 23:00:00 24 6 Sudoeste 14 Sudoeste 0 -- -- 24
2019-06-17 22:00:00 25.6 6 Sudoeste 19 Oeste 0 -- -- 21
2019-06-17 21:00:00 27.4 11 Oeste 23 Oeste 0 -- -- 19
2019-06-17 20:00:00 29.3 14 Sudoeste 31 Oeste 0 -- -- 19
2019-06-17 19:00:00 30.2 20 Oeste 39 Sudoeste 0 -- -- 19
2019-06-17 18:00:00 31.1 13 Sudoeste 37 Sudoeste 0 -- -- 18
2019-06-17 17:00:00 30.6 17 Sudoeste 35 Sudoeste 0 -- -- 20
2019-06-17 16:00:00 28.8 15 Sudoeste 37 Sudoeste 0 -- -- 24
2019-06-17 15:00:00 28.8 13 Sudoeste 26 Sur 0 -- -- 24
2019-06-17 14:00:00 27.5 10 Sur 25 Sudoeste 0 -- -- 26
2019-06-17 13:00:00 26 9 Sur 20 Sudoeste 0 -- -- 28
2019-06-17 12:00:00 24.8 7 Sur 17 Sudoeste 0 -- -- 26
2019-06-17 11:00:00 22.6 7 Sudoeste 17 Sudoeste 0 -- -- 41
2019-06-17 10:00:00 20 4 Sudoeste 11 Sur 0 -- -- 54
2019-06-17 09:00:00 17.3 5 Sur 10 Sur 0 -- -- 64
2019-06-17 08:00:00 14.5 2 Este 6 Sur 0 -- -- 72
2019-06-17 07:00:00 13.2 4 Sur 6 Sur 0 -- -- 74
2019-06-17 06:00:00 13.7 4 Sur 7 Sur 0 -- -- 66
2019-06-17 05:00:00 14.5 3 Sudeste 8 Sur 0 -- -- 59
2019-06-17 04:00:00 15.8 4 Sur 11 Sudoeste 0 -- -- 50
2019-06-17 03:00:00 17.4 2 Sudoeste 14 Sur 0 -- -- 43
2019-06-17 02:00:00 17.9 5 Sudoeste 13 Sur 0 -- -- 36
2019-06-17 01:00:00 19.5 4 Noroeste 6 Noroeste 0 -- -- 33
2019-06-17 00:00:00 19.6 3 Noroeste 8 Oeste 0 -- -- 34
2019-06-16 23:00:00 20.4 4 Noroeste 8 Noroeste 0 -- -- 36
2019-06-16 22:00:00 24.1 5 Noroeste 14 Oeste 0 -- -- 28
2019-06-16 21:00:00 27.2 10 Noroeste 20 Oeste 0 -- -- 24
2019-06-16 20:00:00 28.4 11 Noroeste 21 Sudoeste 0 -- -- 21
2019-06-16 19:00:00 28.8 9 Norte 22 Oeste 0 -- -- 21
2019-06-16 18:00:00 29.3 8 Oeste 24 Sur 0 -- -- 21
2019-06-16 17:00:00 28.4 6 Oeste 24 Sudoeste 0 -- -- 22
2019-06-16 16:00:00 28 8 Sudoeste 26 Sudoeste 0 -- -- 22
2019-06-16 15:00:00 26.8 7 Sur 20 Oeste 0 -- -- 24
2019-06-16 14:00:00 26.6 10 Oeste 22 Oeste 0 -- -- 25
2019-06-16 13:00:00 26.6 6 Sur 18 Sur 0 -- -- 24
2019-06-16 12:00:00 25 5 Sudoeste 9 Oeste 0 -- -- 27
2019-06-16 11:00:00 23.7 4 Sudeste 13 Este 0 -- -- 29
2019-06-16 10:00:00 22.7 7 Este 14 Nordeste 0 -- -- 32
2019-06-16 09:00:00 19.9 4 Este 12 Nordeste 0 -- -- 39
2019-06-16 08:00:00 16.9 3 Este 13 Nordeste 0 -- -- 46
2019-06-16 07:00:00 15 3 Este 13 Este 0 -- -- 50
2019-06-16 06:00:00 14.2 0 Calma 10 Nordeste 0 -- -- 51
2019-06-16 05:00:00 14.7 3 Este 9 Nordeste 0 -- -- 49
2019-06-16 04:00:00 15.9 3 Este 10 Sudeste 0 -- -- 42
2019-06-16 03:00:00 15.9 6 Nordeste 9 Nordeste 0 -- -- 41
2019-06-16 02:00:00 15.4 2 Nordeste 8 Norte 0 -- -- 47
2019-06-16 01:00:00 16.1 3 Norte 6 Norte 0 -- -- 50
2019-06-16 00:00:00 16.9 4 Noroeste 6 Oeste 0 -- -- 49